Terminal Aerodrome Forecast
Issued by NWS

Home | Current Version | Previous Version | Graphics & Text | Print | Product List | Glossary On
Versions: 1 2 3 4 5 6 7 8 9 10 11 12 13 14 15 16 17 18
000
FTUS43 KTOP 201100
TAFFOE
TAF
KFOE 201120Z 2012/2112 18007KT P6SM BKN250 WS006/21030KT
     FM201400 20014KT P6SM BKN150
     FM202100 19012KT P6SM VCTS SCT040CB BKN140
     FM210300 17007KT P6SM -SHRA VCTS BKN035CB=

USA.gov is the U.S. government's official web portal to all federal, state and local government web resources and services.